Time;durP1;ratioP1;P1;durP2;ratioP2;P2;SDS_P1;SDS_P2;PMS_P1;PMS_P2;Temp;Humidity;BMP_temperature;BMP_pressure;BME280_temperature;BME280_humidity;BME280_pressure;Samples;Min_cycle;Max_cycle;Signal;HPM_P1;HPM_P2
2021/03/09 00:00:18;;;;;;;13.50;7.15;;;;;;;0.32;66.16;100790.75;5114719;28;20027;-72
2021/03/09 00:02:44;;;;;;;15.55;7.20;;;;;;;0.41;65.02;100785.41;5115168;28;20052;-72
2021/03/09 00:05:10;;;;;;;16.35;7.03;;;;;;;0.49;65.34;100795.84;5115104;28;20363;-72
2021/03/09 00:07:36;;;;;;;16.30;7.85;;;;;;;0.45;65.77;100786.22;5114566;28;20027;-73
2021/03/09 00:10:03;;;;;;;12.52;6.68;;;;;;;0.47;65.66;100787.09;5114943;28;20032;-72
2021/03/09 00:12:29;;;;;;;13.15;7.38;;;;;;;0.34;65.82;100788.97;5114550;28;20023;-72
2021/03/09 00:14:54;;;;;;;14.98;7.10;;;;;;;0.43;64.48;100794.13;5096561;28;20028;-72
2021/03/09 00:17:20;;;;;;;14.43;6.95;;;;;;;0.42;65.03;100781.91;5114457;28;20401;-72
2021/03/09 00:19:45;;;;;;;14.50;7.28;;;;;;;0.42;64.82;100797.66;5114746;28;20474;-73
2021/03/09 00:22:11;;;;;;;14.60;7.28;;;;;;;0.48;64.84;100792.34;5096582;28;20046;-73
2021/03/09 00:24:37;;;;;;;13.98;7.32;;;;;;;0.46;64.35;100799.34;5114193;28;20478;-74
2021/03/09 00:27:03;;;;;;;15.40;7.32;;;;;;;0.40;65.09;100794.16;5096334;28;20035;-74
2021/03/09 00:29:28;;;;;;;13.93;7.10;;;;;;;0.33;65.07;100787.25;5096027;28;20390;-75
2021/03/09 00:31:53;;;;;;;11.57;6.68;;;;;;;0.28;65.25;100787.25;5114661;28;20024;-74
2021/03/09 00:34:19;;;;;;;13.18;6.68;;;;;;;0.22;65.13;100789.09;5114266;28;20465;-75
2021/03/09 00:36:44;;;;;;;13.65;6.28;;;;;;;0.10;65.07;100766.47;5096459;28;20020;-76
2021/03/09 00:39:10;;;;;;;11.73;6.60;;;;;;;0.17;64.46;100777.75;5114285;28;20026;-75
2021/03/09 00:41:35;;;;;;;13.70;6.53;;;;;;;0.10;65.12;100786.59;5113961;28;20035;-74
2021/03/09 00:44:01;;;;;;;15.10;6.72;;;;;;;0.10;65.07;100781.34;5114226;28;20120;-73
2021/03/09 00:46:26;;;;;;;12.27;6.57;;;;;;;-0.03;65.36;100777.94;5095752;28;20035;-74
2021/03/09 00:48:52;;;;;;;13.85;6.72;;;;;;;0.01;65.43;100781.44;5096231;28;20100;-73
2021/03/09 00:51:17;;;;;;;13.20;6.60;;;;;;;-0.16;65.61;100779.81;5095517;28;20121;-73
2021/03/09 00:53:42;;;;;;;11.35;5.97;;;;;;;-0.17;66.29;100787.69;5114024;28;20085;-73
2021/03/09 00:56:08;;;;;;;16.58;6.90;;;;;;;-0.33;66.01;100764.19;5113984;28;20110;-73
2021/03/09 00:58:33;;;;;;;12.82;5.85;;;;;;;-0.23;65.28;100791.22;5113616;28;20509;-74
2021/03/09 01:00:59;;;;;;;10.13;5.90;;;;;;;-0.26;65.98;100780.75;5078685;28;20093;-74
2021/03/09 01:03:24;;;;;;;11.98;6.30;;;;;;;-0.29;65.98;100788.63;5095491;28;20031;-73
2021/03/09 01:05:50;;;;;;;11.90;6.20;;;;;;;-0.39;66.34;100785.19;5095762;28;20469;-74
2021/03/09 01:08:15;;;;;;;13.15;6.70;;;;;;;-0.37;66.68;100786.09;5113538;28;20023;-75
2021/03/09 01:10:41;;;;;;;11.43;6.15;;;;;;;-0.39;66.62;100777.34;5113689;28;20031;-73
2021/03/09 01:13:07;;;;;;;12.98;6.10;;;;;;;-0.37;66.08;100782.59;5113958;28;20031;-76
2021/03/09 01:15:32;;;;;;;13.38;5.97;;;;;;;-0.42;66.30;100780.00;5113305;28;20035;-75
2021/03/09 01:17:58;;;;;;;12.43;6.57;;;;;;;-0.50;66.66;100779.16;5095153;28;20027;-75
2021/03/09 01:20:23;;;;;;;10.73;5.47;;;;;;;-0.43;66.13;100772.16;5078358;28;20020;-73
2021/03/09 01:22:49;;;;;;;10.60;5.57;;;;;;;-0.48;66.56;100773.91;5113592;28;20031;-73
2021/03/09 01:25:15;;;;;;;10.52;6.15;;;;;;;-0.61;67.27;100774.00;5095202;28;20084;-73
2021/03/09 01:27:41;;;;;;;11.50;6.38;;;;;;;-0.65;67.67;100772.28;5078351;28;20035;-73
2021/03/09 01:30:08;;;;;;;12.73;6.78;;;;;;;-0.74;68.34;100771.47;5095403;28;20085;-73
2021/03/09 01:32:34;;;;;;;12.30;6.10;;;;;;;-0.74;68.50;100767.09;5095227;28;20043;-73
2021/03/09 01:35:00;;;;;;;12.35;5.78;;;;;;;-0.74;67.94;100772.34;5113420;28;20501;-73
2021/03/09 01:37:26;;;;;;;13.07;6.18;;;;;;;-0.75;67.87;100770.63;5113051;28;20440;-74
2021/03/09 01:39:51;;;;;;;13.60;6.47;;;;;;;-0.84;68.50;100769.78;5113355;28;20023;-73
2021/03/09 01:42:17;;;;;;;12.48;6.18;;;;;;;-0.95;69.10;100765.47;5113316;28;20381;-75
2021/03/09 01:44:42;;;;;;;12.35;6.18;;;;;;;-1.05;69.63;100769.03;5095024;28;20115;-73
2021/03/09 01:47:08;;;;;;;14.35;6.53;;;;;;;-0.96;69.84;100770.75;5113280;28;20034;-74
2021/03/09 01:49:37;;;;;;;14.07;6.53;;;;;;;-0.77;68.74;100775.00;5112926;28;20020;-73
2021/03/09 01:52:05;;;;;;;12.00;6.82;;;;;;;-0.74;68.65;100756.63;5113180;28;20023;-74
2021/03/09 01:54:32;;;;;;;13.93;6.82;;;;;;;-0.71;69.13;100764.47;5094492;28;20101;-75
2021/03/09 01:56:57;;;;;;;15.95;7.35;;;;;;;-0.80;69.69;100761.91;5113366;28;20038;-74
2021/03/09 01:59:24;;;;;;;14.13;6.63;;;;;;;-0.52;68.99;100761.72;5094809;28;20023;-74
2021/03/09 02:01:51;;;;;;;13.93;6.43;;;;;;;-0.59;68.75;100760.88;5112922;28;20047;-74
2021/03/09 02:04:16;;;;;;;13.15;6.78;;;;;;;-0.51;68.10;100752.97;5095057;28;20417;-75
2021/03/09 02:06:42;;;;;;;16.80;6.40;;;;;;;-0.43;67.83;100746.81;5112799;28;20020;-73
2021/03/09 02:09:08;;;;;;;13.73;7.15;;;;;;;-0.73;68.98;100754.88;5077937;28;20492;-75
2021/03/09 02:11:45;;;;;;;15.32;7.25;;;;;;;-0.79;69.34;100757.53;5112788;28;20032;-76
2021/03/09 02:14:32;;;;;;;13.65;6.75;;;;;;;-0.87;69.29;100757.56;5095030;28;20040;-73
2021/03/09 02:17:14;;;;;;;15.00;7.05;;;;;;;-0.90;69.04;100749.72;5113018;28;20028;-73
2021/03/09 02:19:56;;;;;;;13.85;6.88;;;;;;;-0.91;69.70;100746.25;5112678;28;20122;-73
2021/03/09 02:22:58;;;;;;;13.00;6.97;;;;;;;-0.95;70.03;100751.53;5112713;28;20031;-74
2021/03/09 02:25:53;;;;;;;12.43;6.53;;;;;;;-0.61;68.21;100758.28;5112954;28;20465;-73
2021/03/09 02:29:02;;;;;;;14.95;7.07;;;;;;;-0.65;69.18;100751.34;5112950;28;20055;-75
2021/03/09 02:31:30;;;;;;;13.23;7.18;;;;;;;-0.83;69.97;100755.81;5053236;28;20029;-73
2021/03/09 02:34:00;;;;;;;13.75;7.65;;;;;;;-0.86;69.76;100764.56;5054084;28;20033;-73
2021/03/09 02:36:29;;;;;;;16.75;7.97;;;;;;;-0.95;70.12;100754.13;5088035;28;20036;-74
2021/03/09 02:39:01;;;;;;;16.52;7.95;;;;;;;-0.97;70.56;100763.72;5116709;28;20103;-73
2021/03/09 02:41:29;;;;;;;16.50;8.07;;;;;;;-1.25;70.98;100742.94;5116339;28;20101;-73
2021/03/09 02:43:56;;;;;;;16.55;8.70;;;;;;;-1.08;71.10;100766.41;5116610;28;20114;-73
2021/03/09 02:46:24;;;;;;;19.45;8.23;;;;;;;-1.13;71.20;100754.22;5116308;28;20444;-78
2021/03/09 02:48:51;;;;;;;15.23;8.30;;;;;;;-1.12;71.32;100764.69;5116447;28;20466;-73
2021/03/09 02:51:18;;;;;;;16.00;8.77;;;;;;;-1.10;71.36;100757.69;5116541;28;20024;-74
2021/03/09 02:53:50;;;;;;;16.70;8.32;;;;;;;-1.21;71.58;100752.50;5116224;28;20390;-76
2021/03/09 02:56:17;;;;;;;19.33;8.70;;;;;;;-1.17;71.34;100746.38;5098399;28;20027;-73
2021/03/09 02:58:46;;;;;;;20.20;9.10;;;;;;;-1.14;71.58;100757.72;5097986;28;20256;-72
2021/03/09 03:01:13;;;;;;;15.18;8.43;;;;;;;-1.16;71.97;100753.38;5116024;28;20474;-72
2021/03/09 03:03:42;;;;;;;17.05;9.07;;;;;;;-1.21;72.14;100760.34;5097873;28;20031;-72
2021/03/09 03:06:09;;;;;;;20.35;9.57;;;;;;;-1.18;72.32;100755.09;5116140;28;20385;-72
2021/03/09 03:08:37;;;;;;;19.00;9.55;;;;;;;-1.16;72.09;100758.59;5115862;28;20027;-72
2021/03/09 03:11:03;;;;;;;18.23;8.90;;;;;;;-1.13;72.13;100757.72;5097788;28;20533;-74
2021/03/09 03:13:30;;;;;;;20.50;9.70;;;;;;;-1.11;72.10;100758.56;5115604;28;20063;-74
2021/03/09 03:15:57;;;;;;;19.65;9.88;;;;;;;-1.13;71.44;100756.84;5115969;28;20027;-73
2021/03/09 03:18:25;;;;;;;17.90;9.40;;;;;;;-1.12;71.74;100763.81;5097967;28;20031;-73
2021/03/09 03:20:51;;;;;;;17.30;9.27;;;;;;;-1.33;72.37;100755.19;5115984;28;20413;-75
2021/03/09 03:23:18;;;;;;;19.80;9.80;;;;;;;-1.32;73.25;100758.66;5115981;28;20037;-75
2021/03/09 03:25:50;;;;;;;24.88;10.73;;;;;;;-1.36;72.92;100749.94;5097419;28;20028;-75
2021/03/09 03:28:16;;;;;;;24.25;10.70;;;;;;;-1.56;73.77;100738.66;5115831;28;20023;-74
2021/03/09 03:30:42;;;;;;;23.13;10.68;;;;;;;-1.48;74.33;100760.44;5115449;28;20034;-74
2021/03/09 03:33:08;;;;;;;27.25;11.57;;;;;;;-1.46;74.07;100758.69;5080747;28;20024;-74
2021/03/09 03:35:34;;;;;;;19.65;10.82;;;;;;;-1.48;74.07;100760.44;5097066;28;20055;-74
2021/03/09 03:38:01;;;;;;;27.52;12.65;;;;;;;-1.65;74.15;100734.34;5115570;28;20031;-76
2021/03/09 03:40:27;;;;;;;25.05;11.57;;;;;;;-1.60;74.78;100752.66;5114714;28;20023;-76
2021/03/09 03:42:53;;;;;;;23.98;12.15;;;;;;;-1.54;74.42;100756.13;5115538;28;20377;-75
2021/03/09 03:45:20;;;;;;;24.38;12.13;;;;;;;-1.63;74.54;100750.06;5097433;28;20020;-75
2021/03/09 03:47:47;;;;;;;27.30;13.20;;;;;;;-1.74;74.79;100750.94;5115110;28;20032;-75
2021/03/09 03:50:17;;;;;;;26.70;12.70;;;;;;;-1.88;75.46;100749.22;5115353;28;20110;-75
2021/03/09 03:52:42;;;;;;;27.42;12.73;;;;;;;-1.79;75.28;100754.44;5114962;28;20091;-75
2021/03/09 03:55:15;;;;;;;24.35;12.57;;;;;;;-1.82;75.39;100755.31;5115088;28;20119;-75
2021/03/09 03:57:48;;;;;;;;;;;;;;;-1.76;75.33;100760.50;5115378;28;20423;-76
2021/03/09 04:00:20;;;;;;;27.25;12.85;;;;;;;-1.69;74.82;100760.50;5114941;28;19914;-75
2021/03/09 04:02:48;;;;;;;26.77;12.90;;;;;;;-1.60;74.41;100763.97;5114837;28;20337;-75
2021/03/09 04:05:15;;;;;;;24.38;12.77;;;;;;;-1.63;74.36;100750.06;5115067;28;20024;-76
2021/03/09 04:07:41;;;;;;;29.92;12.80;;;;;;;-1.72;74.32;100756.16;5114639;28;20394;-75
2021/03/09 04:10:07;;;;;;;27.10;12.48;;;;;;;-1.60;74.49;100763.13;5096631;28;20035;-75
2021/03/09 04:12:35;;;;;;;28.98;13.05;;;;;;;-1.78;75.16;100764.88;5114590;28;20069;-77
2021/03/09 04:15:01;;;;;;;31.40;13.75;;;;;;;-1.89;75.76;100757.94;5114733;28;20485;-74
2021/03/09 04:17:27;;;;;;;31.58;13.43;;;;;;;-1.84;75.96;100758.78;5114768;28;20035;-77
2021/03/09 04:19:55;;;;;;;29.13;14.68;;;;;;;-1.84;76.01;100762.28;5079565;28;20092;-73
2021/03/09 04:22:23;;;;;;;26.33;13.27;;;;;;;-2.04;76.77;100764.03;5096497;28;20081;-74
2021/03/09 04:24:50;;;;;;;31.05;12.82;;;;;;;-2.03;76.50;100771.00;5096190;28;20039;-74
2021/03/09 04:27:21;;;;;;;27.00;14.15;;;;;;;-2.08;76.54;100767.53;5114579;28;20027;-72
2021/03/09 04:29:55;;;;;;;28.95;13.75;;;;;;;-2.22;76.90;100758.81;5114204;28;20042;-72
2021/03/09 04:32:22;;;;;;;27.50;13.48;;;;;;;-2.23;77.40;100777.97;5114436;28;20081;-76
2021/03/09 04:34:49;;;;;;;29.20;13.77;;;;;;;-2.17;77.81;100773.63;5114078;28;20509;-75
2021/03/09 04:37:16;;;;;;;28.60;13.82;;;;;;;-2.33;77.95;100772.75;5096281;28;20110;-74
2021/03/09 04:39:42;;;;;;;26.15;13.18;;;;;;;-2.20;77.87;100784.09;5114151;28;20039;-75
2021/03/09 04:42:10;;;;;;;30.33;14.88;;;;;;;-2.31;78.15;100781.50;5114259;28;20087;-76
2021/03/09 04:44:36;;;;;;;28.48;12.88;;;;;;;-2.34;78.15;100789.31;5113968;28;20118;-72
2021/03/09 04:47:03;;;;;;;29.02;13.05;;;;;;;-2.41;78.22;100773.66;5114097;28;20023;-71
2021/03/09 04:49:33;;;;;;;28.27;13.40;;;;;;;-2.34;78.45;100791.06;5095887;28;20084;-71
2021/03/09 04:51:59;;;;;;;25.35;13.38;;;;;;;-2.31;78.58;100786.72;5095788;28;20041;-72
2021/03/09 04:54:26;;;;;;;29.40;13.77;;;;;;;-2.27;78.70;100791.94;5095671;28;20085;-71
2021/03/09 04:56:51;;;;;;;28.25;14.48;;;;;;;-2.26;78.62;100788.44;5113624;28;20474;-70
2021/03/09 04:59:17;;;;;;;29.58;14.40;;;;;;;-2.22;78.56;100788.47;5095679;28;20039;-72
2021/03/09 05:01:43;;;;;;;32.00;14.15;;;;;;;-2.18;78.07;100781.50;5113464;28;20050;-72
2021/03/09 05:04:09;;;;;;;28.38;13.73;;;;;;;-2.25;78.29;100778.00;5095726;28;20389;-72
2021/03/09 05:06:34;;;;;;;31.48;14.50;;;;;;;-2.12;77.76;100784.13;5095611;28;20076;-72
2021/03/09 05:09:00;;;;;;;27.90;13.75;;;;;;;-1.98;77.29;100787.56;5113810;28;20036;-73
2021/03/09 05:11:28;;;;;;;30.67;14.95;;;;;;;-1.93;77.26;100783.22;5095631;28;20037;-71
2021/03/09 05:13:55;;;;;;;29.77;14.57;;;;;;;-1.90;77.25;100782.34;5113455;28;20035;-72
2021/03/09 05:16:21;;;;;;;30.05;14.77;;;;;;;-1.85;77.20;100781.44;5113663;28;20031;-75
2021/03/09 05:18:46;;;;;;;30.90;15.07;;;;;;;-1.80;77.07;100784.94;5113325;28;20473;-74
2021/03/09 05:21:11;;;;;;;30.42;15.35;;;;;;;-1.90;77.22;100783.22;5113556;28;20050;-74
2021/03/09 05:23:37;;;;;;;32.67;15.68;;;;;;;-1.82;77.04;100789.31;5113147;28;20024;-74
2021/03/09 05:26:02;;;;;;;35.10;16.48;;;;;;;-1.80;77.00;100787.56;5113520;28;20024;-75
2021/03/09 05:28:28;;;;;;;31.75;16.10;;;;;;;-1.78;77.11;100782.31;5113631;28;20023;-75
2021/03/09 05:30:53;;;;;;;34.15;15.43;;;;;;;-1.65;76.58;100788.41;5095062;28;20093;-72
2021/03/09 05:33:19;;;;;;;30.33;15.27;;;;;;;-1.68;76.82;100788.41;5113386;28;20024;-70
2021/03/09 05:35:44;;;;;;;33.83;15.23;;;;;;;-1.77;76.96;100789.28;5113062;28;20036;-70
2021/03/09 05:38:09;;;;;;;31.88;15.70;;;;;;;-1.62;76.53;100780.56;5113495;28;20504;-71
2021/03/09 05:40:35;;;;;;;32.80;14.77;;;;;;;-1.61;76.40;100780.56;5113049;28;20511;-72
2021/03/09 05:43:01;;;;;;;32.28;15.73;;;;;;;-1.68;76.85;100778.81;5095072;28;20393;-71
2021/03/09 05:45:26;;;;;;;33.00;16.02;;;;;;;-1.66;76.37;100786.66;5095175;28;20023;-72
2021/03/09 05:47:52;;;;;;;31.38;15.88;;;;;;;-1.62;76.19;100791.91;5112918;28;20070;-71
2021/03/09 05:50:18;;;;;;;31.65;15.63;;;;;;;-1.57;76.43;100792.75;5113450;28;20076;-72
2021/03/09 05:52:44;;;;;;;31.42;15.15;;;;;;;-1.44;76.27;100788.38;5112803;28;20062;-72
2021/03/09 05:55:11;;;;;;;35.97;16.85;;;;;;;-1.57;75.75;100776.19;5113156;28;20027;-72
2021/03/09 05:57:37;;;;;;;35.00;16.48;;;;;;;-1.52;76.10;100785.75;5094600;28;20118;-71
2021/03/09 06:00:05;;;;;;;32.20;16.10;;;;;;;-1.48;75.64;100794.47;5094909;28;20027;-72
2021/03/09 06:02:31;;;;;;;38.28;18.92;;;;;;;-1.48;75.77;100799.69;5094858;28;20020;-70
2021/03/09 06:04:56;;;;;;;30.73;15.77;;;;;;;-1.41;75.56;100793.59;5097423;28;20427;-71
2021/03/09 06:07:22;;;;;;;35.92;16.90;;;;;;;-1.43;75.68;100797.97;5099024;28;20114;-72
2021/03/09 06:09:48;;;;;;;32.00;15.90;;;;;;;-1.27;74.97;100797.00;5098460;28;20454;-71
2021/03/09 06:12:23;;;;;;;31.98;15.25;;;;;;;-1.35;74.25;100804.06;5117757;28;20080;-75
2021/03/09 06:14:59;;;;;;;29.23;14.85;;;;;;;-1.31;74.35;100805.75;5117182;28;20079;-75
2021/03/09 06:17:35;;;;;;;30.25;14.40;;;;;;;-1.30;74.05;100798.78;5117614;28;20031;-77
2021/03/09 06:20:01;;;;;;;32.97;15.18;;;;;;;-1.10;73.49;100812.66;5118080;28;20063;-73
2021/03/09 06:22:48;;;;;;;30.80;14.90;;;;;;;-0.94;72.63;100810.88;5118285;28;20046;-72
2021/03/09 06:25:16;;;;;;;31.35;14.20;;;;;;;-0.96;71.89;100807.41;5117810;28;20031;-73
2021/03/09 06:27:42;;;;;;;32.25;14.88;;;;;;;-1.00;72.55;100817.00;5116493;28;20042;-73
2021/03/09 06:30:29;;;;;;;28.48;14.25;;;;;;;-0.80;71.62;100818.66;5117049;28;20031;-75
2021/03/09 06:32:55;;;;;;;33.58;14.85;;;;;;;-0.76;71.68;100812.53;5097832;28;20035;-76
2021/03/09 06:35:34;;;;;;;30.98;14.13;;;;;;;-0.75;70.47;100823.00;5116623;28;20038;-77
2021/03/09 06:38:28;;;;;;;30.67;14.88;;;;;;;-0.68;71.12;100822.06;5116589;28;20081;-78
2021/03/09 06:41:16;;;;;;;29.27;14.63;;;;;;;-0.68;70.40;100824.69;5098169;28;20031;-78
2021/03/09 06:43:59;;;;;;;26.63;13.68;;;;;;;-0.57;69.73;100821.16;5098196;28;20051;-81
2021/03/09 06:46:25;;;;;;;31.67;14.77;;;;;;;-0.51;70.50;100832.47;5117013;28;20033;-76
2021/03/09 06:49:00;;;;;;;36.42;15.63;;;;;;;-0.56;70.28;100822.91;5116487;28;20023;-76
2021/03/09 06:51:30;;;;;;;31.80;14.52;;;;;;;-0.32;68.66;100833.22;5117241;27;20462;-76
2021/03/09 06:54:06;;;;;;;24.42;12.55;;;;;;;-0.35;67.75;100839.38;5128797;27;20031;-76
2021/03/09 06:56:34;;;;;;;26.70;13.10;;;;;;;-0.25;66.84;100802.59;5141244;27;20019;-76
2021/03/09 06:59:18;;;;;;;26.10;11.77;;;;;;;-0.12;65.46;100828.72;5139876;27;20102;-76
2021/03/09 07:02:10;;;;;;;22.50;11.52;;;;;;;-0.18;65.08;100827.91;5151860;27;20119;-78
2021/03/09 07:04:46;;;;;;;22.23;11.10;;;;;;;0.07;63.91;100833.81;5153024;27;20035;-72
2021/03/09 07:07:27;;;;;;;26.75;11.93;;;;;;;0.09;63.68;100830.28;5117902;27;20137;-71
2021/03/09 07:10:13;;;;;;;26.20;11.05;;;;;;;0.15;62.27;100814.50;5100836;27;20019;-71
2021/03/09 07:12:44;;;;;;;23.02;11.55;;;;;;;0.11;62.60;100811.94;5136309;27;20068;-71
2021/03/09 07:15:15;;;;;;;22.90;10.93;;;;;;;0.07;62.63;100797.97;5116957;27;20024;-73
2021/03/09 07:17:41;;;;;;;21.02;10.73;;;;;;;0.20;61.41;100822.34;5136180;27;20031;-78
2021/03/09 07:20:09;;;;;;;20.48;10.93;;;;;;;0.35;61.58;100824.81;5138545;27;20524;-76
2021/03/09 07:22:38;;;;;;;18.95;10.02;;;;;;;0.40;60.74;100819.56;5137482;27;20027;-75
2021/03/09 07:25:05;;;;;;;21.88;11.07;;;;;;;0.35;61.70;100824.81;5135639;27;20031;-74
2021/03/09 07:27:44;;;;;;;16.92;8.48;;;;;;;0.61;57.60;100818.47;5136042;27;20034;-75
2021/03/09 07:30:11;;;;;;;16.83;8.23;;;;;;;0.70;57.04;100819.22;5136237;27;20152;-74
2021/03/09 07:32:40;;;;;;;19.40;9.57;;;;;;;0.68;58.32;100809.63;5135321;27;20203;-71
2021/03/09 07:35:08;;;;;;;18.20;8.05;;;;;;;0.73;56.68;100808.69;5155593;27;20045;-70
2021/03/09 07:37:37;;;;;;;13.20;6.25;;;;;;;1.08;55.10;100810.91;5138104;27;20058;-71
2021/03/09 07:40:04;;;;;;;16.70;7.07;;;;;;;1.17;54.11;100803.78;5138101;27;20029;-73
2021/03/09 07:42:29;;;;;;;10.05;4.85;;;;;;;1.44;50.49;100806.03;5137917;27;20034;-76
2021/03/09 07:44:55;;;;;;;11.65;4.50;;;;;;;1.60;50.93;100814.56;5156400;27;20206;-73
2021/03/09 07:47:24;;;;;;;9.77;4.00;;;;;;;1.80;50.25;100812.50;5120980;27;20035;-76
2021/03/09 07:49:50;;;;;;;8.75;3.80;;;;;;;1.83;48.70;100814.22;5137935;27;20037;-77
2021/03/09 07:52:16;;;;;;;10.20;4.07;;;;;;;1.98;47.76;100819.25;5147928;27;20034;-72
2021/03/09 07:55:04;;;;;;;10.27;3.90;;;;;;;1.98;47.65;100809.59;5116709;27;20442;-75
2021/03/09 07:57:33;;;;;;;9.43;3.88;;;;;;;2.01;47.72;100811.28;5135603;27;20151;-74
2021/03/09 08:00:12;;;;;;;7.95;3.78;;;;;;;2.12;46.57;100797.97;5117432;27;20035;-75
2021/03/09 08:02:44;;;;;;;7.65;3.90;;;;;;;2.19;45.58;100818.03;5135426;27;20050;-79
2021/03/09 08:05:14;;;;;;;7.70;3.42;;;;;;;2.25;46.07;100816.16;5135401;27;20080;-77
2021/03/09 08:08:03;;;;;;;7.55;3.10;;;;;;;2.29;45.99;100815.22;5135303;27;20027;-74
2021/03/09 08:10:42;;;;;;;7.82;2.95;;;;;;;2.37;44.31;100808.94;5135356;27;20531;-71
2021/03/09 08:13:08;;;;;;;8.13;3.42;;;;;;;2.33;44.63;100810.78;5135327;27;20106;-71
2021/03/09 08:15:35;;;;;;;6.75;3.13;;;;;;;2.32;43.50;100806.41;5134855;27;20492;-70
2021/03/09 08:18:21;;;;;;;7.28;3.47;;;;;;;2.40;43.13;100815.00;5135233;27;20027;-69
2021/03/09 08:20:57;;;;;;;8.68;3.70;;;;;;;2.39;42.96;100815.03;5126873;27;20118;-75
2021/03/09 08:23:35;;;;;;;9.38;3.63;;;;;;;2.48;43.12;100812.25;5126687;27;20094;-70
2021/03/09 08:26:01;;;;;;;8.15;3.22;;;;;;;2.48;43.50;100814.88;5134771;27;20454;-72
2021/03/09 08:28:45;;;;;;;6.78;3.50;;;;;;;2.44;43.26;100800.06;5133804;27;20031;-74
2021/03/09 08:31:16;;;;;;;8.48;3.47;;;;;;;2.49;42.85;100817.50;5114534;28;20039;-73
2021/03/09 08:33:46;;;;;;;6.70;3.22;;;;;;;2.50;43.26;100815.72;5095821;28;20395;-73
2021/03/09 08:36:21;;;;;;;6.65;3.38;;;;;;;2.57;42.54;100815.59;5114027;28;20024;-75
2021/03/09 08:41:48;;;;;;;6.90;3.55;;;;;;;2.62;43.03;100804.13;5114237;28;20028;-72
2021/03/09 08:44:13;;;;;;;7.55;3.50;;;;;;;2.71;41.78;100798.69;5098598;28;20420;-73
2021/03/09 08:46:56;;;;;;;7.95;3.25;;;;;;;2.74;41.88;100795.97;5114072;28;20034;-72
2021/03/09 08:49:33;;;;;;;7.13;3.17;;;;;;;2.75;41.62;100788.03;5095811;28;20101;-71
2021/03/09 08:52:03;;;;;;;7.00;3.33;;;;;;;2.72;41.52;100790.75;5119649;27;20055;-75
2021/03/09 08:54:50;;;;;;;7.78;3.40;;;;;;;2.69;42.18;100785.50;5134179;27;20688;-77
2021/03/09 08:57:18;;;;;;;8.10;3.47;;;;;;;2.80;41.19;100787.97;5116056;27;20101;-74
2021/03/09 08:59:49;;;;;;;7.50;3.40;;;;;;;2.80;40.93;100783.56;5134084;27;20026;-75
2021/03/09 09:02:19;;;;;;;5.53;3.25;;;;;;;2.87;41.31;100795.69;5115878;27;20386;-74
2021/03/09 09:04:56;;;;;;;6.38;3.10;;;;;;;2.95;41.88;100792.03;5133972;27;20027;-73
2021/03/09 09:07:36;;;;;;;8.98;3.50;;;;;;;2.93;41.56;100789.44;5134481;27;20667;-76
2021/03/09 09:10:04;;;;;;;8.10;3.67;;;;;;;2.94;41.92;100785.03;5116798;27;20026;-74
2021/03/09 09:12:31;;;;;;;5.38;3.22;;;;;;;2.83;41.58;100761.53;5134212;27;20525;-78
2021/03/09 09:15:02;;;;;;;6.47;3.60;;;;;;;3.01;41.20;100781.38;5133827;27;20027;-75
2021/03/09 09:17:29;;;;;;;6.72;3.70;;;;;;;3.11;40.84;100780.28;5098976;27;20035;-74
2021/03/09 09:20:00;;;;;;;7.05;3.47;;;;;;;3.25;40.37;100772.94;5115574;27;20023;-75
2021/03/09 09:22:29;;;;;;;7.60;3.55;;;;;;;3.20;40.58;100787.13;5105857;28;20482;-76
2021/03/09 09:25:00;;;;;;;7.32;3.67;;;;;;;3.18;40.07;100784.50;5095011;28;20031;-76
2021/03/09 09:27:25;;;;;;;7.82;3.70;;;;;;;3.18;39.19;100781.88;5095409;28;20470;-73
2021/03/09 09:29:57;;;;;;;8.73;3.42;;;;;;;3.10;39.29;100774.16;5095102;28;20163;-72
2021/03/09 09:32:23;;;;;;;7.25;3.78;;;;;;;3.11;39.87;100778.50;5078244;28;20031;-71
2021/03/09 09:34:59;;;;;;;8.43;3.63;;;;;;;3.11;40.76;100780.28;5112715;28;20258;-75
2021/03/09 09:37:34;;;;;;;8.77;3.92;;;;;;;3.03;40.08;100769.03;5095457;28;20381;-78
2021/03/09 09:40:03;;;;;;;10.23;3.83;;;;;;;3.09;39.72;100766.28;5113167;28;20023;-78
2021/03/09 09:42:29;;;;;;;7.28;3.75;;;;;;;3.37;39.87;100764.75;5095646;28;20384;-76
2021/03/09 09:44:54;;;;;;;8.70;3.85;;;;;;;3.52;39.05;100765.31;5113123;28;20031;-78
2021/03/09 09:47:21;;;;;;;8.77;4.03;;;;;;;3.41;39.47;100750.59;5095102;28;20039;-76
2021/03/09 09:49:46;;;;;;;8.60;4.03;;;;;;;3.47;39.65;100753.97;5095315;28;20032;-75
2021/03/09 09:52:19;;;;;;;12.15;4.10;;;;;;;3.49;39.12;100760.13;5095014;28;20548;-77
2021/03/09 09:54:55;;;;;;;8.32;4.25;;;;;;;3.45;38.85;100751.38;5095191;28;20502;-76
2021/03/09 09:57:24;;;;;;;9.05;4.40;;;;;;;3.52;38.76;100758.25;5113210;28;20039;-77
2021/03/09 09:59:50;;;;;;;7.30;3.75;;;;;;;3.44;39.22;100733.84;5094767;28;20066;-75
2021/03/09 10:02:23;;;;;;;10.02;4.03;;;;;;;3.57;39.25;100747.59;5088942;28;20068;-72
2021/03/09 10:04:52;;;;;;;8.40;4.03;;;;;;;3.57;39.01;100744.94;5075025;28;20038;-74
2021/03/09 10:07:20;;;;;;;8.45;4.00;;;;;;;3.82;37.96;100739.97;5092618;28;20399;-76
2021/03/09 10:09:59;;;;;;;8.18;4.15;;;;;;;3.95;38.16;100741.38;5091338;28;20107;-73
2021/03/09 10:12:51;;;;;;;9.00;4.40;;;;;;;3.95;37.24;100736.97;5092454;28;20024;-75
2021/03/09 10:15:18;;;;;;;8.27;3.70;;;;;;;4.09;38.16;100735.78;5088156;28;20128;-78
2021/03/09 10:17:44;;;;;;;7.85;4.00;;;;;;;3.86;37.70;100731.94;5092736;28;20107;-73
2021/03/09 10:20:21;;;;;;;8.95;4.07;;;;;;;3.89;37.37;100726.59;5106300;28;20118;-73
2021/03/09 10:22:47;;;;;;;7.47;3.80;;;;;;;3.93;37.39;100716.81;5112649;28;20413;-71
2021/03/09 10:25:15;;;;;;;9.98;4.15;;;;;;;4.01;37.08;100728.91;5112434;28;20106;-74
2021/03/09 10:27:41;;;;;;;6.78;3.67;;;;;;;3.99;37.38;100714.03;5111647;28;20498;-75
2021/03/09 10:30:07;;;;;;;8.27;3.92;;;;;;;3.91;37.13;100708.06;5111545;28;20035;-73
2021/03/09 10:32:48;;;;;;;9.52;4.35;;;;;;;3.94;37.42;100723.81;5094743;28;20039;-73
2021/03/09 10:35:14;;;;;;;10.50;4.95;;;;;;;3.95;37.70;100715.84;5094308;28;20020;-72
2021/03/09 10:37:41;;;;;;;8.15;4.40;;;;;;;4.00;37.49;100713.97;5094613;28;20076;-72
2021/03/09 10:40:13;;;;;;;9.48;4.03;;;;;;;4.02;37.13;100703.38;5112977;28;20034;-73
2021/03/09 10:42:47;;;;;;;14.48;5.25;;;;;;;4.19;37.38;100714.34;5112720;28;20044;-73
2021/03/09 10:45:16;;;;;;;10.30;5.05;;;;;;;4.31;36.47;100702.59;5112407;28;20027;-74
2021/03/09 10:48:02;;;;;;;8.93;4.47;;;;;;;4.23;36.82;100697.50;5112462;28;20080;-73
2021/03/09 10:50:37;;;;;;;9.75;4.70;;;;;;;4.11;36.93;100689.94;5112821;28;20439;-74
2021/03/09 10:53:03;;;;;;;8.52;4.50;;;;;;;4.20;37.13;100678.25;5115948;28;20024;-72
2021/03/09 10:55:29;;;;;;;9.82;4.28;;;;;;;4.33;37.45;100684.91;5114755;28;20028;-72
2021/03/09 10:57:54;;;;;;;8.63;4.57;;;;;;;4.44;37.05;100687.25;5116215;28;20032;-75
2021/03/09 11:00:22;;;;;;;9.90;4.75;;;;;;;4.29;37.61;100686.78;5117661;28;20055;-72
2021/03/09 11:02:48;;;;;;;10.82;4.72;;;;;;;4.28;37.49;100679.78;5137958;27;20062;-74
2021/03/09 11:05:14;;;;;;;9.20;4.38;;;;;;;4.40;36.95;100681.22;5136390;27;20023;-74
2021/03/09 11:07:40;;;;;;;9.30;4.80;;;;;;;4.64;36.42;100684.94;5136729;27;20087;-75
2021/03/09 11:10:07;;;;;;;11.10;4.50;;;;;;;4.67;36.46;100684.84;5136287;27;20039;-75
2021/03/09 11:12:33;;;;;;;9.80;4.68;;;;;;;4.72;36.41;100676.78;5136643;27;20023;-78
2021/03/09 11:14:59;;;;;;;13.88;4.90;;;;;;;4.69;36.20;100687.44;5136305;27;20027;-75
2021/03/09 11:17:24;;;;;;;10.40;4.45;;;;;;;4.54;37.10;100679.06;5136451;27;20120;-76
2021/03/09 11:19:50;;;;;;;12.45;5.22;;;;;;;4.51;36.20;100672.97;5118499;27;20039;-78
2021/03/09 11:22:16;;;;;;;8.77;4.85;;;;;;;4.38;36.21;100666.31;5109734;28;20027;-74
2021/03/09 11:24:42;;;;;;;10.35;4.60;;;;;;;4.10;37.16;100671.50;5115826;28;20027;-73
2021/03/09 11:27:09;;;;;;;9.82;4.40;;;;;;;3.95;37.38;100665.69;5099611;28;20020;-78
2021/03/09 11:29:35;;;;;;;10.77;5.03;;;;;;;3.84;37.85;100654.56;5115554;28;20496;-75
2021/03/09 11:32:01;;;;;;;9.93;4.45;;;;;;;3.98;37.59;100651.59;5115809;28;20024;-76